| time (UTC) | temp F | wind direction | speed MPH | gust MPH | rain 1hr in | rain 24hr in | rain mn in | humidity % | barometer mb |
| 20260507093041 | 30 | 299 | 0.0 | 2.0 | 0.00 | 0.00 | 0.00 | 83 | 1013.3 |
| 20260507091532 | 30 | 299 | 0.0 | 0.0 | 0.00 | 0.00 | 0.00 | 83 | 1013.1 |
| 20260507090026 | 31 | 299 | 0.0 | 0.0 | 0.00 | 0.00 | 0.00 | 81 | 1013.0 |
| 20260507084523 | 31 | 359 | 0.0 | 0.0 | 0.00 | 0.00 | 0.00 | 80 | 1012.8 |
| 20260507083027 | 32 | 299 | 0.0 | 0.0 | 0.00 | 0.00 | 0.00 | 80 | 1012.8 |
| 20260507081529 | 33 | 299 | 0.0 | 2.0 | 0.00 | 0.00 | 0.00 | 78 | 1012.7 |
| 20260507080019 | 34 | 299 | 0.0 | 3.0 | 0.00 | 0.00 | 0.00 | 78 | 1012.5 |
| 20260507074511 | 34 | 299 | 1.0 | 3.0 | 0.00 | 0.00 | 0.00 | 77 | 1012.3 |
| 20260507073010 | 35 | 299 | 0.0 | 2.0 | 0.00 | 0.00 | 0.00 | 76 | 1012.1 |
| 20260507071508 | 36 | 299 | 1.0 | 2.0 | 0.00 | 0.00 | 0.00 | 75 | 1012.1 |
| 20260507070010 | 36 | 299 | 0.0 | 3.0 | 0.00 | 0.00 | 0.00 | 74 | 1011.9 |
| 20260507064505 | 37 | 299 | 0.0 | 0.0 | 0.00 | 0.00 | 0.00 | 73 | 1011.7 |
| 20260507063004 | 37 | 299 | 0.0 | 2.0 | 0.00 | 0.00 | 0.00 | 72 | 1011.6 |
| 20260507061503 | 38 | 299 | 1.0 | 4.0 | 0.00 | 0.00 | 0.00 | 70 | 1011.4 |
| 20260507060101 | 38 | 297 | 1.0 | 4.0 | 0.00 | 0.00 | 0.00 | 70 | 1011.3 |
| 20260507060003 | 38 | 359 | 1.0 | 4.0 | 0.00 | 0.00 | 0.00 | 70 | 1011.3 |
| 20260507054609 | 39 | 324 | 1.0 | 4.0 | 0.00 | 0.00 | 0.00 | 69 | 1011.2 |
| 20260507053058 | 39 | 279 | 3.0 | 5.0 | 0.00 | 0.00 | 0.00 | 69 | 1011.0 |
| 20260507051556 | 40 | 272 | 1.0 | 6.0 | 0.00 | 0.00 | 0.00 | 68 | 1010.8 |
| 20260507050053 | 40 | 292 | 1.0 | 3.0 | 0.00 | 0.00 | 0.00 | 67 | 1010.5 |
| 20260507044552 | 41 | 293 | 0.0 | 3.0 | 0.00 | 0.00 | 0.00 | 67 | 1010.4 |
| 20260507043058 | 41 | 359 | 2.0 | 7.0 | 0.00 | 0.00 | 0.00 | 66 | 1010.3 |
| 20260507041600 | 42 | 247 | 3.0 | 6.0 | 0.00 | 0.00 | 0.00 | 65 | 1010.2 |
| 20260507040054 | 42 | 332 | 3.0 | 9.0 | 0.00 | 0.00 | 0.00 | 64 | 1010.1 |
| 20260507034549 | 42 | 324 | 4.0 | 7.0 | 0.00 | 0.00 | 0.00 | 63 | 1009.9 |
| 20260507033046 | 43 | 328 | 4.0 | 12.0 | 0.00 | 0.00 | 0.00 | 61 | 1009.7 |
| 20260507031543 | 45 | 332 | 5.0 | 9.0 | 0.00 | 0.00 | 0.00 | 59 | 1009.4 |
| 20260507030042 | 46 | 44 | 5.0 | 9.0 | 0.00 | 0.00 | 0.00 | 58 | 1009.2 |
| 20260507024540 | 47 | 359 | 6.0 | 12.0 | 0.00 | 0.00 | 0.00 | 56 | 1009.1 |
| 20260507023038 | 47 | 314 | 1.0 | 8.0 | 0.00 | 0.00 | 0.00 | 53 | 1008.9 |
| 20260507021537 | 48 | 318 | 3.0 | 8.0 | 0.00 | 0.00 | 0.00 | 48 | 1008.8 |
| 20260507020035 | 49 | 284 | 3.0 | 9.0 | 0.00 | 0.00 | 0.00 | 44 | 1008.7 |
| 20260507014548 | 49 | 239 | 4.0 | 11.0 | 0.00 | 0.00 | 0.00 | 39 | 1008.6 |
| 20260507013043 | 49 | 246 | 5.0 | 11.0 | 0.00 | 0.00 | 0.00 | 39 | 1008.6 |
| 20260507011538 | 50 | 288 | 7.0 | 14.0 | 0.00 | 0.00 | 0.00 | 37 | 1008.5 |
| 20260507010034 | 49 | 272 | 2.0 | 12.0 | 0.00 | 0.00 | 0.00 | 40 | 1008.5 |
| 20260507004531 | 49 | 267 | 4.0 | 17.0 | 0.00 | 0.00 | 0.00 | 40 | 1008.3 |
| 20260507003030 | 49 | 254 | 10.0 | 19.0 | 0.00 | 0.00 | 0.00 | 39 | 1008.2 |
| 20260507001528 | 49 | 221 | 3.0 | 14.0 | 0.00 | 0.00 | 0.00 | 40 | 1008.2 |
| 20260507000031 | 49 | 270 | 7.0 | 14.0 | 0.00 | 0.00 | 0.00 | 39 | 1008.1 |
| 20260506234529 | 50 | 273 | 5.0 | 15.0 | 0.00 | 0.00 | 0.00 | 37 | 1008.1 |
| 20260506233029 | 51 | 359 | 7.0 | 14.0 | 0.00 | 0.00 | 0.00 | 37 | 1008.0 |
| 20260506231526 | 51 | 237 | 3.0 | 10.0 | 0.00 | 0.00 | 0.00 | 37 | 1008.1 |
| 20260506230024 | 50 | 283 | 5.0 | 15.0 | 0.00 | 0.00 | 0.00 | 38 | 1008.1 |
| 20260506224523 | 50 | 245 | 4.0 | 12.0 | 0.00 | 0.00 | 0.00 | 40 | 1008.2 |
| 20260506223021 | 50 | 278 | 4.0 | 9.0 | 0.00 | 0.00 | 0.00 | 42 | 1008.1 |
| 20260506221518 | 49 | 287 | 3.0 | 9.0 | 0.00 | 0.00 | 0.00 | 42 | 1008.2 |
| 20260506220018 | 49 | 249 | 5.0 | 10.0 | 0.00 | 0.00 | 0.00 | 42 | 1008.2 |
| 20260506214518 | 48 | 317 | 2.0 | 8.0 | 0.00 | 0.00 | 0.00 | 43 | 1008.1 |
| 20260506213016 | 48 | 265 | 7.0 | 12.0 | 0.00 | 0.00 | 0.00 | 45 | 1008.1 |
| 20260506211515 | 49 | 187 | 7.0 | 12.0 | 0.00 | 0.00 | 0.00 | 46 | 1008.1 |
| 20260506210015 | 48 | 181 | 3.0 | 9.0 | 0.00 | 0.00 | 0.00 | 47 | 1008.0 |
| 20260506204512 | 48 | 153 | 4.0 | 10.0 | 0.00 | 0.00 | 0.00 | 48 | 1008.0 |
| 20260506203011 | 48 | 207 | 4.0 | 10.0 | 0.00 | 0.00 | 0.00 | 49 | 1008.0 |
| 20260506201510 | 48 | 213 | 5.0 | 10.0 | 0.00 | 0.00 | 0.00 | 47 | 1008.0 |
| 20260506200009 | 48 | 108 | 7.0 | 12.0 | 0.00 | 0.00 | 0.00 | 49 | 1007.9 |
| 20260506194511 | 47 | 138 | 1.0 | 9.0 | 0.00 | 0.00 | 0.00 | 52 | 1008.0 |
| 20260506193005 | 46 | 197 | 5.0 | 10.0 | 0.00 | 0.00 | 0.00 | 51 | 1008.1 |
| 20260506191505 | 46 | 194 | 5.0 | 10.0 | 0.00 | 0.00 | 0.00 | 51 | 1008.1 |
| 20260506190003 | 46 | 160 | 5.0 | 9.0 | 0.00 | 0.00 | 0.00 | 53 | 1008.1 |
| 20260506184502 | 46 | 179 | 3.0 | 11.0 | 0.00 | 0.00 | 0.00 | 53 | 1008.2 |
| 20260506183102 | 45 | 242 | 4.0 | 9.0 | 0.00 | 0.00 | 0.00 | 53 | 1008.2 |
| 20260506181557 | 45 | 262 | 1.0 | 6.0 | 0.00 | 0.00 | 0.00 | 55 | 1008.2 |
| 20260506180104 | 44 | 232 | 3.0 | 5.0 | 0.00 | 0.00 | 0.00 | 56 | 1008.3 |
| 20260506174551 | 43 | 250 | 1.0 | 3.0 | 0.00 | 0.00 | 0.00 | 59 | 1008.3 |
| 20260506173106 | 43 | 359 | 2.0 | 9.0 | 0.00 | 0.00 | 0.00 | 58 | 1008.3 |
| 20260506171552 | 42 | 283 | 1.0 | 4.0 | 0.00 | 0.00 | 0.00 | 62 | 1008.3 |
| 20260506170046 | 42 | 246 | 2.0 | 7.0 | 0.00 | 0.00 | 0.00 | 61 | 1008.2 |
| 20260506164545 | 42 | 209 | 2.0 | 7.0 | 0.00 | 0.00 | 0.00 | 62 | 1008.1 |
| 20260506163048 | 41 | 220 | 2.0 | 6.0 | 0.00 | 0.00 | 0.00 | 61 | 1007.9 |
| 20260506161552 | 41 | 228 | 1.0 | 5.0 | 0.00 | 0.00 | 0.00 | 66 | 1007.9 |
| 20260506160039 | 41 | 256 | 0.0 | 3.0 | 0.00 | 0.00 | 0.00 | 64 | 1007.9 |
| 20260506154538 | 40 | 201 | 1.0 | 8.0 | 0.00 | 0.00 | 0.00 | 64 | 1007.7 |
| 20260506153038 | 40 | 179 | 0.0 | 7.0 | 0.00 | 0.00 | 0.00 | 64 | 1007.6 |
| 20260506151535 | 39 | 210 | 2.0 | 7.0 | 0.00 | 0.00 | 0.00 | 67 | 1007.4 |
| 20260506150036 | 37 | 201 | 3.0 | 9.0 | 0.00 | 0.00 | 0.00 | 71 | 1007.4 |
| 20260506144532 | 36 | 21 | 0.0 | 0.0 | 0.00 | 0.00 | 0.00 | 75 | 1007.3 |
| 20260506143031 | 36 | 21 | 0.0 | 3.0 | 0.00 | 0.00 | 0.00 | 74 | 1007.2 |
| 20260506141528 | 36 | 21 | 1.0 | 3.0 | 0.00 | 0.00 | 0.00 | 73 | 1007.1 |
| 20260506140027 | 35 | 206 | 2.0 | 7.0 | 0.00 | 0.00 | 0.00 | 72 | 1007.0 |
| 20260506134600 | 35 | 168 | 1.0 | 5.0 | 0.00 | 0.00 | 0.00 | 74 | 1007.0 |
| 20260506133024 | 35 | 201 | 1.0 | 5.0 | 0.00 | 0.00 | 0.00 | 74 | 1006.9 |
| 20260506131527 | 34 | 216 | 2.0 | 4.0 | 0.00 | 0.00 | 0.00 | 73 | 1006.9 |
| 20260506130020 | 35 | 330 | 0.0 | 4.0 | 0.00 | 0.00 | 0.00 | 72 | 1006.9 |
| 20260506124518 | 35 | 233 | 0.0 | 0.0 | 0.00 | 0.00 | 0.00 | 71 | 1006.8 |
| 20260506123014 | 36 | 231 | 0.0 | 0.0 | 0.00 | 0.00 | 0.00 | 68 | 1006.8 |
| 20260506121512 | 37 | 232 | 3.0 | 4.0 | 0.00 | 0.00 | 0.00 | 66 | 1006.5 |
| 20260506120012 | 38 | 359 | 0.0 | 4.0 | 0.00 | 0.00 | 0.00 | 66 | 1006.4 |
| 20260506114519 | 39 | 212 | 3.0 | 5.0 | 0.00 | 0.00 | 0.00 | 58 | 1006.1 |
| 20260506113008 | 40 | 271 | 0.0 | 6.0 | 0.00 | 0.00 | 0.00 | 56 | 1006.1 |
| 20260506111506 | 40 | 206 | 3.0 | 8.0 | 0.00 | 0.00 | 0.00 | 59 | 1006.0 |
| 20260506110011 | 40 | 224 | 2.0 | 8.0 | 0.00 | 0.00 | 0.00 | 62 | 1005.9 |
| 20260506104504 | 40 | 197 | 4.0 | 7.0 | 0.00 | 0.00 | 0.00 | 63 | 1005.9 |
| 20260506103009 | 39 | 220 | 4.0 | 8.0 | 0.00 | 0.00 | 0.00 | 63 | 1005.9 |
| 20260506101600 | 38 | 242 | 2.0 | 6.0 | 0.00 | 0.00 | 0.00 | 64 | 1005.8 |
| 20260506100101 | 36 | 177 | 1.0 | 5.0 | 0.00 | 0.00 | 0.00 | 67 | 1005.5 |
| 20260506094554 | 37 | 299 | 0.0 | 2.0 | 0.00 | 0.00 | 0.00 | 66 | 1005.6 |